createdAt,value
2023-05-01T00:02:08.635Z,99673.81
2023-05-01T00:11:44.287Z,99667.25
2023-05-01T00:21:18.434Z,99650.91
2023-05-01T00:30:52.666Z,99641.63
2023-05-01T00:40:26.446Z,99630.84
2023-05-01T00:49:58.928Z,99618.84
2023-05-01T00:59:32.966Z,99614.77
2023-05-01T01:09:08.671Z,99597.90
2023-05-01T01:18:41.029Z,99587.46
2023-05-01T01:28:16.768Z,99578.33
2023-05-01T01:37:49.023Z,99568.99
2023-05-01T01:47:23.105Z,99569.09
2023-05-01T01:56:58.847Z,99562.86
2023-05-01T02:06:33.220Z,99547.59
2023-05-01T02:16:05.803Z,99554.29
2023-05-01T02:25:42.464Z,99546.63
2023-05-01T02:35:13.825Z,99555.06
2023-05-01T02:44:47.802Z,99551.00
2023-05-01T02:54:21.471Z,99551.63
2023-05-01T03:03:55.157Z,99553.75
2023-05-01T03:13:28.906Z,99544.90
2023-05-01T03:23:04.409Z,99539.50
2023-05-01T03:32:38.843Z,99536.86
2023-05-01T03:42:12.731Z,99539.53
2023-05-01T03:51:46.151Z,99525.79
2023-05-01T04:01:21.786Z,99522.64
2023-05-01T04:10:55.175Z,99526.70
2023-05-01T04:20:29.028Z,99517.17
2023-05-01T04:30:01.518Z,99517.50
2023-05-01T04:39:35.695Z,99522.69
2023-05-01T04:49:10.125Z,99519.52
2023-05-01T04:58:46.238Z,99519.44
2023-05-01T05:08:20.424Z,99518.62
2023-05-01T05:17:53.951Z,99516.36
2023-05-01T05:27:26.535Z,99519.05
2023-05-01T05:37:01.125Z,99512.65
2023-05-01T05:46:35.465Z,99514.63
2023-05-01T05:56:09.767Z,99510.43
2023-05-01T06:05:46.026Z,99513.78
2023-05-01T06:15:19.427Z,99510.45
2023-05-01T06:16:22.007Z,99511.90
2023-05-01T06:17:24.370Z,99514.92
2023-05-01T06:18:26.785Z,99509.66
2023-05-01T06:19:30.917Z,99507.36
2023-05-01T06:29:04.047Z,99498.28
2023-05-01T06:30:07.988Z,99502.80
2023-05-01T06:31:10.366Z,99497.75
2023-05-01T06:32:12.808Z,99498.16
2023-05-01T06:33:16.932Z,99492.55
2023-05-01T06:34:19.188Z,99490.80
2023-05-01T06:43:52.117Z,99490.09
2023-05-01T06:44:55.607Z,99489.15
2023-05-01T06:45:57.997Z,99496.34
2023-05-01T06:47:03.092Z,99490.75
2023-05-01T06:48:06.920Z,99490.58
2023-05-01T06:49:10.824Z,99486.36
2023-05-01T06:58:43.639Z,99492.02
2023-05-01T06:59:47.581Z,99488.50
2023-05-01T07:00:52.609Z,99489.70
2023-05-01T07:01:57.551Z,99490.97
2023-05-01T07:02:59.770Z,99491.40
2023-05-01T07:04:02.197Z,99492.98
2023-05-01T07:05:04.586Z,99490.00
2023-05-01T07:06:08.568Z,99491.70
2023-05-01T07:07:10.890Z,99491.73
2023-05-01T07:08:15.948Z,99493.78
2023-05-01T07:09:18.144Z,99491.23
2023-05-01T07:10:22.214Z,99493.35
2023-05-01T07:11:24.711Z,99492.81
2023-05-01T07:12:28.755Z,99493.45
2023-05-01T07:13:31.061Z,99489.71
2023-05-01T07:14:33.527Z,99495.01
2023-05-01T07:15:37.577Z,99498.36
2023-05-01T07:16:41.502Z,99493.31
2023-05-01T07:17:43.816Z,99488.88
2023-05-01T07:18:46.223Z,99491.03
2023-05-01T07:19:48.667Z,99491.34
2023-05-01T07:20:51.148Z,99490.07
2023-05-01T07:21:55.170Z,99491.87
2023-05-01T07:22:57.471Z,99492.91
2023-05-01T07:23:59.927Z,99492.81
2023-05-01T07:25:03.353Z,99496.84
2023-05-01T07:26:07.359Z,99488.17
2023-05-01T07:27:11.249Z,99493.69
2023-05-01T07:28:13.521Z,99493.27
2023-05-01T07:29:15.980Z,99492.02
2023-05-01T07:30:18.405Z,99496.11
2023-05-01T07:31:20.882Z,99493.01
2023-05-01T07:32:24.415Z,99490.74
2023-05-01T07:33:26.741Z,99494.84
2023-05-01T07:34:29.227Z,99491.45
2023-05-01T07:35:31.669Z,99490.47
2023-05-01T07:36:34.196Z,99487.78
2023-05-01T07:37:38.209Z,99491.21
2023-05-01T07:38:42.132Z,99492.61
2023-05-01T07:39:44.495Z,99492.51
2023-05-01T07:40:46.997Z,99494.28
2023-05-01T07:41:49.485Z,99496.34
2023-05-01T07:42:54.632Z,99496.67
2023-05-01T07:43:57.512Z,99495.73
2023-05-01T07:44:59.819Z,99495.61
2023-05-01T07:46:04.076Z,99493.95
2023-05-01T07:47:06.373Z,99492.73
2023-05-01T07:48:08.772Z,99494.50
2023-05-01T07:49:11.159Z,99492.41
2023-05-01T07:50:13.645Z,99493.03
2023-05-01T07:51:16.155Z,99492.88
2023-05-01T07:52:18.547Z,99492.51
2023-05-01T07:53:22.628Z,99493.00
2023-05-01T07:54:26.701Z,99489.28
2023-05-01T07:55:30.607Z,99492.21
2023-05-01T07:56:32.935Z,99486.92
2023-05-01T07:57:35.365Z,99483.66
2023-05-01T07:58:39.432Z,99482.44
2023-05-01T07:59:44.351Z,99482.08
2023-05-01T08:00:46.568Z,99483.67
2023-05-01T08:01:49.023Z,99483.17
2023-05-01T08:02:51.530Z,99481.66
2023-05-01T08:03:54.009Z,99485.55
2023-05-01T08:04:56.449Z,99484.88
2023-05-01T08:05:58.856Z,99489.28
2023-05-01T08:07:01.297Z,99485.05
2023-05-01T08:08:05.385Z,99482.37
2023-05-01T08:09:10.274Z,99482.39
2023-05-01T08:10:15.334Z,99481.02
2023-05-01T08:11:17.567Z,99482.66
2023-05-01T08:12:20.017Z,99475.63
2023-05-01T08:13:22.436Z,99477.84
2023-05-01T08:14:26.510Z,99474.94
2023-05-01T08:15:28.737Z,99478.52
2023-05-01T08:16:31.234Z,99476.01
2023-05-01T08:17:33.647Z,99478.44
2023-05-01T08:18:36.086Z,99483.06
2023-05-01T08:19:40.245Z,99479.70
2023-05-01T08:20:43.481Z,99479.16
2023-05-01T08:21:45.822Z,99478.63
2023-05-01T08:22:49.932Z,99480.59
2023-05-01T08:23:52.296Z,99481.60
2023-05-01T08:24:56.357Z,99474.64
2023-05-01T08:25:58.636Z,99481.38
2023-05-01T08:27:01.098Z,99477.11
2023-05-01T08:28:09.208Z,99480.89
2023-05-01T08:29:12.360Z,99478.14
2023-05-01T08:30:17.262Z,99480.34
2023-05-01T08:31:20.494Z,99480.81
2023-05-01T08:32:28.438Z,99477.27
2023-05-01T08:33:33.121Z,99479.36
2023-05-01T08:34:38.037Z,99475.77
2023-05-01T08:35:40.124Z,99475.55
2023-05-01T08:36:44.140Z,99476.34
2023-05-01T08:37:48.087Z,99472.47
2023-05-01T08:38:51.998Z,99476.63
2023-05-01T08:39:54.439Z,99478.06
2023-05-01T08:40:56.803Z,99477.56
2023-05-01T08:41:59.279Z,99474.16
2023-05-01T08:43:01.747Z,99475.88
2023-05-01T08:44:04.180Z,99477.56
2023-05-01T08:45:06.592Z,99476.13
2023-05-01T08:46:09.393Z,99473.58
2023-05-01T08:47:12.090Z,99474.74
2023-05-01T08:48:18.157Z,99475.34
2023-05-01T08:49:20.323Z,99476.49
2023-05-01T08:50:24.012Z,99477.06
2023-05-01T08:51:27.643Z,99474.48
2023-05-01T08:52:31.160Z,99474.03
2023-05-01T08:53:33.770Z,99473.36
2023-05-01T08:54:38.014Z,99476.34
2023-05-01T08:55:40.589Z,99471.63
2023-05-01T08:56:45.722Z,99471.55
2023-05-01T08:57:51.967Z,99472.23
2023-05-01T08:58:55.887Z,99469.97
2023-05-01T08:59:58.534Z,99474.28
2023-05-01T09:01:01.019Z,99475.98
2023-05-01T09:02:03.679Z,99479.42
2023-05-01T09:03:08.043Z,99478.05
2023-05-01T09:04:12.255Z,99485.67
2023-05-01T09:05:14.557Z,99483.20
2023-05-01T09:06:18.666Z,99486.60
2023-05-01T09:07:22.692Z,99483.34
2023-05-01T09:08:26.283Z,99483.06
2023-05-01T09:09:31.355Z,99485.34
2023-05-01T09:10:33.896Z,99484.81
2023-05-01T09:11:39.184Z,99480.86
2023-05-01T09:12:41.710Z,99481.82
2023-05-01T09:13:45.802Z,99476.92
2023-05-01T09:14:48.148Z,99479.67
2023-05-01T09:15:50.777Z,99476.80
2023-05-01T09:16:53.287Z,99477.13
2023-05-01T09:17:55.932Z,99476.15
2023-05-01T09:18:59.506Z,99477.23
2023-05-01T09:20:03.616Z,99477.87
2023-05-01T09:21:07.817Z,99477.53
2023-05-01T09:22:11.475Z,99476.58
2023-05-01T09:23:14.721Z,99475.14
2023-05-01T09:24:18.609Z,99474.20
2023-05-01T09:25:21.039Z,99473.56
2023-05-01T09:26:25.130Z,99473.48
2023-05-01T09:27:29.324Z,99469.79
2023-05-01T09:28:33.338Z,99465.39
2023-05-01T09:29:37.608Z,99466.65
2023-05-01T09:30:41.651Z,99465.27
2023-05-01T09:31:44.196Z,99465.17
2023-05-01T09:32:48.262Z,99462.19
2023-05-01T09:33:52.194Z,99461.02
2023-05-01T09:34:56.317Z,99465.44
2023-05-01T09:35:58.841Z,99459.88
2023-05-01T09:37:01.555Z,99462.19
2023-05-01T09:38:04.271Z,99461.30
2023-05-01T09:39:08.594Z,99457.66
2023-05-01T09:40:12.884Z,99465.03
2023-05-01T09:41:17.042Z,99459.42
2023-05-01T09:42:20.980Z,99463.30
2023-05-01T09:43:23.368Z,99462.38
2023-05-01T09:44:25.941Z,99461.59
2023-05-01T09:45:30.224Z,99462.47
2023-05-01T09:46:34.346Z,99464.41
2023-05-01T09:47:38.506Z,99462.89
2023-05-01T09:48:44.540Z,99459.39
2023-05-01T09:49:47.078Z,99458.30
2023-05-01T09:50:49.500Z,99457.76
2023-05-01T09:51:53.530Z,99461.69
2023-05-01T09:52:56.087Z,99462.22
2023-05-01T09:53:58.725Z,99460.28
2023-05-01T09:55:03.046Z,99465.03
2023-05-01T09:56:07.252Z,99458.67
2023-05-01T09:57:11.418Z,99455.67
2023-05-01T09:58:13.961Z,99458.45
2023-05-01T09:59:16.704Z,99456.66
2023-05-01T10:00:20.854Z,99458.47
2023-05-01T10:01:23.244Z,99459.86
2023-05-01T10:02:25.781Z,99458.14
2023-05-01T10:03:30.092Z,99463.19
2023-05-01T10:04:32.509Z,99463.47
2023-05-01T10:05:36.787Z,99457.59
2023-05-01T10:06:39.618Z,99459.55
2023-05-01T10:07:43.876Z,99458.73
2023-05-01T10:08:47.798Z,99459.02
2023-05-01T10:09:50.122Z,99457.27
2023-05-01T10:10:54.214Z,99453.16
2023-05-01T10:11:58.320Z,99451.27
2023-05-01T10:13:00.786Z,99454.45
2023-05-01T10:14:03.446Z,99454.88
2023-05-01T10:15:13.990Z,99453.97
2023-05-01T10:16:12.205Z,99454.98
2023-05-01T10:17:16.378Z,99461.30
2023-05-01T10:18:18.944Z,99463.90
2023-05-01T10:19:21.608Z,99459.52
2023-05-01T10:20:24.389Z,99460.41
2023-05-01T10:21:26.965Z,99461.61
2023-05-01T10:22:29.671Z,99462.95
2023-05-01T10:23:32.354Z,99461.02
2023-05-01T10:24:36.675Z,99460.63
2023-05-01T10:25:39.255Z,99460.31
2023-05-01T10:26:41.870Z,99457.61
2023-05-01T10:27:46.221Z,99460.59
2023-05-01T10:28:50.325Z,99457.69
2023-05-01T10:29:54.826Z,99455.70
2023-05-01T10:30:57.127Z,99461.77
2023-05-01T10:32:01.359Z,99454.03
2023-05-01T10:33:05.431Z,99451.81
2023-05-01T10:34:09.557Z,99449.93
2023-05-01T10:35:12.175Z,99456.43
2023-05-01T10:36:15.013Z,99454.72
2023-05-01T10:37:19.302Z,99455.88
2023-05-01T10:38:23.609Z,99453.94
2023-05-01T10:39:26.223Z,99451.83
2023-05-01T10:40:28.865Z,99447.45
2023-05-01T10:41:31.622Z,99448.81
2023-05-01T10:42:35.974Z,99450.11
2023-05-01T10:43:38.590Z,99453.47
2023-05-01T10:44:41.154Z,99448.01
2023-05-01T10:45:45.511Z,99443.56
2023-05-01T10:46:48.067Z,99445.91
2023-05-01T10:47:50.855Z,99442.34
2023-05-01T10:48:54.489Z,99444.68
2023-05-01T10:49:57.055Z,99441.27
2023-05-01T10:51:01.409Z,99441.42
2023-05-01T10:52:05.615Z,99441.84
2023-05-01T10:53:08.304Z,99441.05
2023-05-01T10:54:10.950Z,99444.76
2023-05-01T10:55:15.320Z,99443.94
2023-05-01T10:56:19.494Z,99442.50
2023-05-01T10:57:22.040Z,99446.78
2023-05-01T10:58:24.643Z,99442.75
2023-05-01T10:59:27.488Z,99445.33
2023-05-01T11:00:30.267Z,99443.91
2023-05-01T11:01:33.151Z,99439.39
2023-05-01T11:02:35.700Z,99442.02
2023-05-01T11:03:39.891Z,99439.19
2023-05-01T11:04:42.400Z,99442.27
2023-05-01T11:05:45.140Z,99438.91
2023-05-01T11:06:49.551Z,99437.53
2023-05-01T11:07:53.886Z,99443.02
2023-05-01T11:08:58.091Z,99441.88
2023-05-01T11:10:00.712Z,99440.91
2023-05-01T11:11:05.071Z,99442.41
2023-05-01T11:12:07.624Z,99442.60
2023-05-01T11:13:10.355Z,99440.95
2023-05-01T11:14:14.766Z,99437.89
2023-05-01T11:15:19.019Z,99445.84
2023-05-01T11:16:23.114Z,99442.16
2023-05-01T11:17:25.791Z,99442.23
2023-05-01T11:18:28.472Z,99436.88
2023-05-01T11:19:31.144Z,99435.34
2023-05-01T11:20:35.367Z,99434.81
2023-05-01T11:21:37.975Z,99438.61
2023-05-01T11:22:40.668Z,99430.33
2023-05-01T11:23:43.371Z,99427.66
2023-05-01T11:24:45.998Z,99427.84
2023-05-01T11:25:48.717Z,99426.99
2023-05-01T11:26:53.093Z,99429.70
2023-05-01T11:27:57.481Z,99433.02
2023-05-01T11:29:01.637Z,99423.09
2023-05-01T11:30:04.403Z,99422.43
2023-05-01T11:31:07.074Z,99423.21
2023-05-01T11:32:09.966Z,99420.64
2023-05-01T11:33:12.539Z,99423.63
2023-05-01T11:34:16.870Z,99426.62
2023-05-01T11:35:19.440Z,99420.67
2023-05-01T11:36:23.782Z,99421.70
2023-05-01T11:37:28.080Z,99417.64
2023-05-01T11:38:32.337Z,99412.36
2023-05-01T11:39:34.819Z,99417.22
2023-05-01T11:40:38.994Z,99414.00
2023-05-01T11:41:41.580Z,99410.17
2023-05-01T11:42:44.352Z,99411.91
2023-05-01T11:43:46.976Z,99414.90
2023-05-01T11:44:49.686Z,99416.35
2023-05-01T11:45:53.970Z,99419.06
2023-05-01T11:46:56.488Z,99420.14
2023-05-01T11:48:03.602Z,99417.03
2023-05-01T11:49:03.499Z,99417.16
2023-05-01T11:50:06.211Z,99417.00
2023-05-01T11:51:08.840Z,99417.86
2023-05-01T11:52:11.531Z,99412.53
2023-05-01T11:53:16.046Z,99413.32
2023-05-01T11:54:18.350Z,99416.05
2023-05-01T11:55:22.679Z,99417.39
2023-05-01T11:56:26.870Z,99414.39
2023-05-01T11:57:28.004Z,99413.67
2023-05-01T11:58:32.253Z,99409.92
2023-05-01T11:59:34.869Z,99411.64
2023-05-01T12:00:39.173Z,99409.02
2023-05-01T12:01:43.378Z,99406.17
2023-05-01T12:02:45.949Z,99403.14
2023-05-01T12:03:48.650Z,99402.08
2023-05-01T12:04:51.493Z,99406.42
2023-05-01T12:05:55.505Z,99404.17
2023-05-01T12:06:58.138Z,99407.28
2023-05-01T12:08:00.734Z,99409.58
2023-05-01T12:09:03.514Z,99408.97
2023-05-01T12:10:06.369Z,99415.44
2023-05-01T12:11:10.587Z,99411.08
2023-05-01T12:12:13.127Z,99408.86
2023-05-01T12:13:17.471Z,99409.25
2023-05-01T12:14:21.762Z,99408.75
2023-05-01T12:15:25.899Z,99410.79
2023-05-01T12:16:28.657Z,99408.76
2023-05-01T12:17:31.315Z,99404.61
2023-05-01T12:18:35.556Z,99407.58
2023-05-01T12:19:38.211Z,99402.94
2023-05-01T12:20:40.944Z,99405.65
2023-05-01T12:21:43.684Z,99406.84
2023-05-01T12:22:46.343Z,99403.77
2023-05-01T12:23:49.173Z,99406.00
2023-05-01T12:24:52.881Z,99408.63
2023-05-01T12:25:55.424Z,99407.59
2023-05-01T12:26:57.996Z,99412.50
2023-05-01T12:28:00.664Z,99404.59
2023-05-01T12:29:05.088Z,99409.86
2023-05-01T12:30:09.293Z,99407.70
2023-05-01T12:31:13.490Z,99405.72
2023-05-01T12:32:16.034Z,99406.40
2023-05-01T12:33:20.363Z,99406.27
2023-05-01T12:34:22.934Z,99406.78
2023-05-01T12:35:27.280Z,99403.24
2023-05-01T12:36:31.415Z,99405.68
2023-05-01T12:37:33.976Z,99403.23
2023-05-01T12:38:36.642Z,99400.64
2023-05-01T12:39:39.406Z,99403.52
2023-05-01T12:40:43.528Z,99403.13
2023-05-01T12:41:46.124Z,99404.45
2023-05-01T12:42:48.746Z,99406.11
2023-05-01T12:43:51.350Z,99399.66
2023-05-01T12:44:54.054Z,99400.56
2023-05-01T12:45:56.729Z,99399.11
2023-05-01T12:46:59.291Z,99404.23
2023-05-01T12:48:03.477Z,99402.67
2023-05-01T12:49:06.018Z,99399.28
2023-05-01T12:50:08.561Z,99395.88
2023-05-01T12:51:11.227Z,99393.97
2023-05-01T12:52:13.930Z,99387.56
2023-05-01T12:53:16.661Z,99387.67
2023-05-01T12:54:21.069Z,99385.86
2023-05-01T12:55:23.668Z,99386.17
2023-05-01T12:56:26.379Z,99383.93
2023-05-01T12:57:29.190Z,99381.80
2023-05-01T12:58:31.896Z,99386.61
2023-05-01T13:08:05.951Z,99375.30
2023-05-01T13:09:10.263Z,99373.48
2023-05-01T13:10:12.907Z,99373.30
2023-05-01T13:11:17.155Z,99376.53
2023-05-01T13:12:19.655Z,99374.52
2023-05-01T13:13:22.263Z,99368.57
2023-05-01T13:14:24.960Z,99371.45
2023-05-01T13:15:27.579Z,99370.51
2023-05-01T13:16:30.285Z,99369.23
2023-05-01T13:17:32.863Z,99366.52
2023-05-01T13:18:35.528Z,99377.02
2023-05-01T13:19:38.210Z,99374.47
2023-05-01T13:20:42.420Z,99376.75
2023-05-01T13:21:45.018Z,99374.79
2023-05-01T13:22:47.646Z,99371.84
2023-05-01T13:23:52.039Z,99372.42
2023-05-01T13:24:54.618Z,99374.44
2023-05-01T13:25:58.908Z,99371.86
2023-05-01T13:27:02.874Z,99373.73
2023-05-01T13:28:04.111Z,99373.03
2023-05-01T13:29:08.458Z,99371.23
2023-05-01T13:30:11.107Z,99373.98
2023-05-01T13:31:13.743Z,99376.48
2023-05-01T13:32:21.341Z,99378.44
2023-05-01T13:33:23.726Z,99377.04
2023-05-01T13:34:26.420Z,99378.50
2023-05-01T13:35:30.690Z,99376.85
2023-05-01T13:36:33.469Z,99372.24
2023-05-01T13:37:36.232Z,99377.55
2023-05-01T13:38:40.662Z,99373.16
2023-05-01T13:39:43.224Z,99371.02
2023-05-01T13:40:47.739Z,99372.42
2023-05-01T13:41:50.349Z,99370.57
2023-05-01T13:42:53.105Z,99375.39
2023-05-01T13:43:57.417Z,99376.02
2023-05-01T13:45:01.464Z,99374.14
2023-05-01T13:46:04.062Z,99374.96
2023-05-01T13:47:08.349Z,99371.70
2023-05-01T13:48:10.928Z,99368.39
2023-05-01T13:49:13.680Z,99374.06
2023-05-01T13:50:17.915Z,99372.39
2023-05-01T13:51:20.539Z,99373.77
2023-05-01T13:52:23.250Z,99368.98
2023-05-01T13:53:27.595Z,99371.14
2023-05-01T13:54:30.064Z,99369.66
2023-05-01T13:55:32.907Z,99365.33
2023-05-01T13:56:35.471Z,99358.55
2023-05-01T13:57:39.744Z,99366.80
2023-05-01T13:58:42.314Z,99360.61
2023-05-01T13:59:45.000Z,99360.22
2023-05-01T14:00:47.626Z,99359.31
2023-05-01T14:01:50.319Z,99359.73
2023-05-01T14:02:53.057Z,99357.79
2023-05-01T14:03:57.269Z,99359.27
2023-05-01T14:05:00.840Z,99360.58
2023-05-01T14:06:02.602Z,99360.81
2023-05-01T14:07:06.763Z,99362.19
2023-05-01T14:08:10.861Z,99359.08
2023-05-01T14:09:13.415Z,99361.17
2023-05-01T14:10:16.129Z,99362.88
2023-05-01T14:11:20.440Z,99359.89
2023-05-01T14:12:23.222Z,99358.08
2023-05-01T14:13:25.887Z,99356.39
2023-05-01T14:14:30.303Z,99353.08
2023-05-01T14:15:34.523Z,99352.98
2023-05-01T14:16:38.848Z,99351.16
2023-05-01T14:17:41.251Z,99349.77
2023-05-01T14:18:45.571Z,99351.24
2023-05-01T14:19:48.294Z,99349.61
2023-05-01T14:20:51.111Z,99349.77
2023-05-01T14:21:54.052Z,99351.22
2023-05-01T14:22:56.774Z,99348.79
2023-05-01T14:24:01.106Z,99343.95
2023-05-01T14:25:03.766Z,99334.06
2023-05-01T14:26:06.474Z,99337.27
2023-05-01T14:27:10.244Z,99334.25
2023-05-01T14:28:12.902Z,99333.82
2023-05-01T14:29:17.334Z,99339.34
2023-05-01T14:30:21.459Z,99336.53
2023-05-01T14:31:25.713Z,99336.62
2023-05-01T14:32:28.569Z,99337.22
2023-05-01T14:33:34.998Z,99336.99
2023-05-01T14:34:39.172Z,99338.22
2023-05-01T14:35:41.774Z,99339.47
2023-05-01T14:36:44.450Z,99339.52
2023-05-01T14:37:48.695Z,99341.14
2023-05-01T14:38:51.275Z,99338.27
2023-05-01T14:39:53.946Z,99345.43
2023-05-01T14:40:56.860Z,99342.42
2023-05-01T14:41:59.538Z,99345.88
2023-05-01T14:43:02.315Z,99344.28
2023-05-01T14:44:05.093Z,99342.27
2023-05-01T14:45:07.774Z,99343.06
2023-05-01T14:46:10.528Z,99343.91
2023-05-01T14:47:13.229Z,99346.84
2023-05-01T14:48:17.493Z,99344.25
2023-05-01T14:49:21.651Z,99343.93
2023-05-01T14:50:24.351Z,99341.77
2023-05-01T14:51:27.174Z,99341.78
2023-05-01T14:52:29.858Z,99345.19
2023-05-01T14:53:34.070Z,99347.16
2023-05-01T14:54:38.249Z,99340.28
2023-05-01T15:04:08.989Z,99343.36
2023-05-01T15:05:11.629Z,99342.04
2023-05-01T15:06:16.018Z,99344.13
2023-05-01T15:07:20.240Z,99338.45
2023-05-01T15:08:22.986Z,99338.33
2023-05-01T15:09:27.373Z,99342.30
2023-05-01T15:10:31.643Z,99339.16
2023-05-01T15:11:37.165Z,99345.88
2023-05-01T15:12:41.489Z,99341.59
2023-05-01T15:13:45.038Z,99346.35
2023-05-01T15:14:47.534Z,99342.08
2023-05-01T15:15:50.272Z,99341.81
2023-05-01T15:16:53.028Z,99343.95
2023-05-01T15:17:55.680Z,99345.83
2023-05-01T15:18:58.363Z,99344.10
2023-05-01T15:20:01.189Z,99344.11
2023-05-01T15:21:03.826Z,99345.34
2023-05-01T15:22:08.256Z,99340.80
2023-05-01T15:23:12.417Z,99341.78
2023-05-01T15:24:16.732Z,99341.92
2023-05-01T15:25:19.340Z,99345.34
2023-05-01T15:26:21.995Z,99341.27
2023-05-01T15:27:26.395Z,99346.23
2023-05-01T15:28:28.874Z,99345.64
2023-05-01T15:29:31.685Z,99346.05
2023-05-01T15:39:03.196Z,99350.58
2023-05-01T15:40:05.714Z,99351.57
2023-05-01T15:41:09.953Z,99347.19
2023-05-01T15:42:14.139Z,99348.36
2023-05-01T15:43:16.777Z,99339.97
2023-05-01T15:44:21.255Z,99346.31
2023-05-01T15:45:26.594Z,99347.58
2023-05-01T15:46:29.130Z,99346.75
2023-05-01T15:47:31.869Z,99346.77
2023-05-01T15:48:34.470Z,99339.70
2023-05-01T15:49:37.413Z,99343.70
2023-05-01T15:50:41.789Z,99339.83
2023-05-01T15:51:45.972Z,99343.34
2023-05-01T15:52:48.553Z,99336.77
2023-05-01T15:53:51.333Z,99341.23
2023-05-01T15:54:55.656Z,99346.21
2023-05-01T15:55:59.853Z,99341.50
2023-05-01T15:57:02.594Z,99338.71
2023-05-01T15:58:05.375Z,99343.55
2023-05-01T15:59:09.679Z,99344.66
2023-05-01T16:00:13.909Z,99339.38
2023-05-01T16:01:16.634Z,99345.13
2023-05-01T16:02:20.850Z,99343.75
2023-05-01T16:03:23.416Z,99346.12
2023-05-01T16:04:26.094Z,99344.49
2023-05-01T16:05:30.308Z,99342.11
2023-05-01T16:06:33.017Z,99343.98
2023-05-01T16:07:35.646Z,99348.12
2023-05-01T16:08:38.337Z,99345.97
2023-05-01T16:09:41.009Z,99345.77
2023-05-01T16:10:43.837Z,99343.64
2023-05-01T16:11:48.209Z,99345.78
2023-05-01T16:12:50.897Z,99348.02
2023-05-01T16:13:55.286Z,99351.54
2023-05-01T16:14:57.854Z,99352.84
2023-05-01T16:16:00.662Z,99353.16
2023-05-01T16:17:03.532Z,99350.59
2023-05-01T16:18:07.880Z,99356.27
2023-05-01T16:19:11.975Z,99353.77
2023-05-01T16:20:14.918Z,99356.95
2023-05-01T16:21:20.170Z,99355.33
2023-05-01T16:22:22.700Z,99360.19
2023-05-01T16:23:26.922Z,99362.86
2023-05-01T16:24:31.033Z,99361.02
2023-05-01T16:25:39.196Z,99359.23
2023-05-01T16:26:43.200Z,99367.87
2023-05-01T16:27:45.813Z,99366.09
2023-05-01T16:28:50.992Z,99361.45
2023-05-01T16:29:55.034Z,99362.73
2023-05-01T16:30:57.632Z,99363.55
2023-05-01T16:32:01.978Z,99366.25
2023-05-01T16:33:06.253Z,99362.92
2023-05-01T16:34:10.256Z,99366.55
2023-05-01T16:35:13.752Z,99367.52
2023-05-01T16:36:19.035Z,99372.13
2023-05-01T16:37:23.210Z,99363.75
2023-05-01T16:38:27.372Z,99365.82
2023-05-01T16:39:31.628Z,99368.70
2023-05-01T16:40:34.251Z,99375.34
2023-05-01T16:41:36.982Z,99376.63
2023-05-01T16:42:39.720Z,99381.18
2023-05-01T16:43:42.361Z,99376.14
2023-05-01T16:44:46.481Z,99379.80
2023-05-01T16:45:48.889Z,99375.53
2023-05-01T16:46:51.312Z,99382.31
2023-05-01T16:47:53.697Z,99376.53
2023-05-01T16:48:56.159Z,99380.25
2023-05-01T16:49:58.804Z,99377.66
2023-05-01T16:51:01.022Z,99375.72
2023-05-01T16:52:05.119Z,99377.34
2023-05-01T16:53:07.395Z,99377.43
2023-05-01T16:54:09.923Z,99373.83
2023-05-01T16:55:14.021Z,99380.78
2023-05-01T16:56:16.365Z,99380.84
2023-05-01T16:57:18.842Z,99384.74
2023-05-01T16:58:21.252Z,99382.81
2023-05-01T16:59:25.328Z,99383.99
2023-05-01T17:00:27.653Z,99375.63
2023-05-01T17:01:30.200Z,99377.13
2023-05-01T17:02:32.575Z,99380.00
2023-05-01T17:03:36.040Z,99380.58
2023-05-01T17:04:40.097Z,99382.81
2023-05-01T17:05:42.361Z,99381.72
2023-05-01T17:06:46.653Z,99381.30
2023-05-01T17:07:50.532Z,99380.82
2023-05-01T17:08:53.151Z,99383.53
2023-05-01T17:09:57.311Z,99380.72
2023-05-01T17:10:59.823Z,99387.18
2023-05-01T17:12:03.154Z,99387.27
2023-05-01T17:13:05.543Z,99389.17
2023-05-01T17:14:08.140Z,99387.53
2023-05-01T17:15:10.649Z,99390.53
2023-05-01T17:16:13.488Z,99390.50
2023-05-01T17:17:15.843Z,99394.48
2023-05-01T17:18:18.318Z,99396.25
2023-05-01T17:19:21.969Z,99394.13
2023-05-01T17:20:24.192Z,99392.86
2023-05-01T17:21:26.617Z,99394.36
2023-05-01T17:22:30.654Z,99395.46
2023-05-01T17:23:34.558Z,99392.54
2023-05-01T17:24:36.891Z,99394.28
2023-05-01T17:25:39.313Z,99394.19
2023-05-01T17:26:47.408Z,99397.09
2023-05-01T17:27:51.426Z,99392.50
2023-05-01T17:28:53.725Z,99389.44
2023-05-01T17:29:56.388Z,99391.94
2023-05-01T17:31:00.510Z,99394.37
2023-05-01T17:32:03.878Z,99397.20
2023-05-01T17:33:06.522Z,99391.22
2023-05-01T17:34:10.534Z,99396.67
2023-05-01T17:35:15.445Z,99400.55
2023-05-01T17:36:17.801Z,99399.45
2023-05-01T17:37:20.349Z,99395.36
2023-05-01T17:38:24.413Z,99400.00
2023-05-01T17:39:26.829Z,99402.47
2023-05-01T17:40:30.810Z,99399.84
2023-05-01T17:41:33.230Z,99403.59
2023-05-01T17:42:35.721Z,99403.70
2023-05-01T17:43:38.182Z,99403.34
2023-05-01T17:44:42.252Z,99405.46
2023-05-01T17:45:44.519Z,99408.52
2023-05-01T17:46:48.576Z,99412.64
2023-05-01T17:47:50.872Z,99411.87
2023-05-01T17:48:53.572Z,99412.81
2023-05-01T17:58:24.895Z,99424.02
2023-05-01T17:59:27.412Z,99423.88
2023-05-01T18:00:29.863Z,99421.77
2023-05-01T18:01:32.637Z,99423.80
2023-05-01T18:02:35.163Z,99423.59
2023-05-01T18:03:38.183Z,99423.92
2023-05-01T18:04:42.074Z,99422.56
2023-05-01T18:05:44.745Z,99424.54
2023-05-01T18:06:47.352Z,99425.50
2023-05-01T18:07:49.838Z,99421.05
2023-05-01T18:08:52.180Z,99423.82
2023-05-01T18:09:54.788Z,99424.88
2023-05-01T18:10:57.367Z,99428.39
2023-05-01T18:12:01.369Z,99429.70
2023-05-01T18:13:03.691Z,99432.20
2023-05-01T18:14:06.105Z,99429.08
2023-05-01T18:15:10.231Z,99433.17
2023-05-01T18:16:13.559Z,99430.91
2023-05-01T18:17:18.547Z,99438.15
2023-05-01T18:18:21.041Z,99443.39
2023-05-01T18:19:24.415Z,99448.25
2023-05-01T18:20:29.367Z,99443.64
2023-05-01T18:21:31.916Z,99454.10
2023-05-01T18:22:34.210Z,99454.29
2023-05-01T18:23:38.239Z,99452.46
2023-05-01T18:24:40.650Z,99451.31
2023-05-01T18:25:43.120Z,99457.34
2023-05-01T18:26:47.169Z,99461.07
2023-05-01T18:27:53.337Z,99455.00
2023-05-01T18:28:56.340Z,99457.52
2023-05-01T18:29:59.954Z,99457.42
2023-05-01T18:31:03.744Z,99456.69
2023-05-01T18:32:06.038Z,99453.67
2023-05-01T18:33:08.484Z,99454.42
2023-05-01T18:34:10.906Z,99461.50
2023-05-01T18:43:43.635Z,99485.68
2023-05-01T18:44:47.552Z,99483.65
2023-05-01T18:54:19.846Z,99519.39
2023-05-01T19:03:51.435Z,99540.60
2023-05-01T19:04:57.645Z,99542.64
2023-05-01T19:14:25.278Z,99572.83
2023-05-01T19:24:00.225Z,99589.38
2023-05-01T19:33:31.740Z,99592.77
2023-05-01T19:34:35.861Z,99588.30
2023-05-01T19:44:07.528Z,99599.57
2023-05-01T19:53:41.014Z,99612.95
2023-05-01T20:03:15.872Z,99614.09
2023-05-01T20:12:47.356Z,99619.65
2023-05-01T20:22:20.550Z,99640.38
2023-05-01T20:31:54.523Z,99658.84
2023-05-01T20:41:28.410Z,99657.81
2023-05-01T20:51:02.462Z,99656.83
2023-05-01T21:00:36.413Z,99670.02
2023-05-01T21:10:10.407Z,99677.55
2023-05-01T21:19:47.457Z,99679.80
2023-05-01T21:29:19.325Z,99685.39